createdAt,value
2022-10-29T00:00:13.334Z,1.83
2022-10-29T00:02:41.150Z,1.67
2022-10-29T00:05:09.811Z,1.70
2022-10-29T00:07:37.661Z,1.90
2022-10-29T00:10:08.023Z,1.43
2022-10-29T00:12:36.176Z,1.50
2022-10-29T00:15:05.185Z,1.07
2022-10-29T00:17:32.932Z,2.80
2022-10-29T00:20:00.782Z,2.20
2022-10-29T00:22:28.644Z,1.87
2022-10-29T00:24:56.444Z,1.50
2022-10-29T00:27:26.144Z,1.73
2022-10-29T00:29:55.346Z,1.80
2022-10-29T00:32:23.274Z,1.67
2022-10-29T00:34:51.041Z,1.77
2022-10-29T00:37:18.769Z,2.60
2022-10-29T00:39:46.515Z,2.67
2022-10-29T00:42:16.649Z,2.00
2022-10-29T00:44:45.991Z,4.00
2022-10-29T00:47:25.871Z,2.73
2022-10-29T00:49:57.561Z,2.37
2022-10-29T00:52:30.942Z,2.53
2022-10-29T00:55:02.199Z,1.70
2022-10-29T00:57:36.951Z,2.57
2022-10-29T01:00:07.355Z,2.47
2022-10-29T01:02:36.423Z,3.70
2022-10-29T01:05:05.581Z,1.50
2022-10-29T01:07:33.408Z,2.10
2022-10-29T01:10:01.169Z,1.87
2022-10-29T01:12:44.717Z,2.47
2022-10-29T01:15:22.360Z,3.23
2022-10-29T01:18:04.290Z,2.53
2022-10-29T01:21:05.551Z,2.30
2022-10-29T01:24:07.331Z,4.60
2022-10-29T01:26:59.959Z,1.70
2022-10-29T01:29:44.353Z,1.90
2022-10-29T01:32:15.453Z,1.60
2022-10-29T01:34:52.535Z,2.13
2022-10-29T01:37:27.362Z,2.13
2022-10-29T01:39:59.606Z,1.70
2022-10-29T01:42:32.954Z,2.00
2022-10-29T01:45:09.143Z,1.57
2022-10-29T01:47:43.121Z,1.23
2022-10-29T01:50:16.429Z,1.60
2022-10-29T01:52:45.791Z,1.60
2022-10-29T01:55:17.413Z,1.93
2022-10-29T01:57:45.296Z,1.77
2022-10-29T02:00:15.754Z,1.60
2022-10-29T02:02:55.608Z,1.50
2022-10-29T02:05:32.999Z,1.30
2022-10-29T02:08:14.864Z,1.30
2022-10-29T02:10:49.991Z,1.73
2022-10-29T02:13:20.137Z,1.37
2022-10-29T02:15:52.388Z,1.53
2022-10-29T02:18:21.664Z,1.73
2022-10-29T02:20:49.463Z,1.87
2022-10-29T02:23:17.703Z,1.60
2022-10-29T02:25:45.691Z,2.30
2022-10-29T02:28:13.546Z,1.30
2022-10-29T02:30:41.325Z,2.63
2022-10-29T02:33:09.058Z,1.73
2022-10-29T02:35:38.237Z,1.83
2022-10-29T02:38:05.989Z,2.23
2022-10-29T02:40:34.195Z,1.53
2022-10-29T02:43:02.002Z,3.00
2022-10-29T02:45:29.782Z,2.03
2022-10-29T02:47:57.836Z,1.73
2022-10-29T02:50:26.003Z,1.90
2022-10-29T02:52:55.133Z,1.90
2022-10-29T02:55:22.910Z,1.40
2022-10-29T02:57:50.759Z,1.50
2022-10-29T03:00:19.300Z,1.67
2022-10-29T03:02:47.336Z,2.03
2022-10-29T03:05:15.288Z,1.30
2022-10-29T03:07:43.061Z,2.80
2022-10-29T03:10:12.403Z,1.60
2022-10-29T03:12:40.138Z,2.67
2022-10-29T03:15:08.762Z,3.97
2022-10-29T03:17:36.584Z,1.73
2022-10-29T03:20:04.915Z,2.60
2022-10-29T03:22:32.694Z,1.43
2022-10-29T03:25:00.520Z,2.50
2022-10-29T03:27:29.662Z,2.90
2022-10-29T03:29:57.381Z,1.83
2022-10-29T03:32:25.094Z,1.40
2022-10-29T03:34:56.059Z,1.87
2022-10-29T03:37:27.155Z,1.67
2022-10-29T03:39:55.091Z,3.33
2022-10-29T03:42:22.979Z,2.10
2022-10-29T03:44:52.386Z,2.00
2022-10-29T03:47:20.166Z,1.93
2022-10-29T03:49:48.065Z,2.47
2022-10-29T03:52:15.832Z,2.53
2022-10-29T03:54:43.700Z,6.43
2022-10-29T03:57:11.544Z,5.07
2022-10-29T03:59:39.388Z,4.07
2022-10-29T04:02:12.853Z,3.87
2022-10-29T04:04:40.706Z,3.80
2022-10-29T04:07:08.523Z,4.70
2022-10-29T04:09:36.345Z,2.20
2022-10-29T04:12:04.727Z,1.77
2022-10-29T04:14:32.558Z,3.57
2022-10-29T04:17:00.786Z,2.30
2022-10-29T04:19:30.339Z,3.03
2022-10-29T04:24:32.464Z,2.67
2022-10-29T04:27:08.107Z,3.90
2022-10-29T04:28:41.855Z,3.93
2022-10-29T04:30:22.217Z,5.03
2022-10-29T04:32:50.223Z,3.90
2022-10-29T04:35:19.414Z,3.37
2022-10-29T04:37:47.163Z,3.30
2022-10-29T04:40:15.128Z,3.00
2022-10-29T04:42:42.996Z,2.37
2022-10-29T04:45:11.206Z,3.37
2022-10-29T04:47:39.008Z,2.03
2022-10-29T04:50:07.131Z,2.07
2022-10-29T04:52:36.239Z,1.83
2022-10-29T04:55:04.645Z,2.33
2022-10-29T04:57:32.685Z,1.70
2022-10-29T05:00:00.584Z,1.73
2022-10-29T05:02:28.375Z,3.10
2022-10-29T05:04:56.327Z,1.63
2022-10-29T05:07:24.091Z,2.77
2022-10-29T05:09:53.263Z,3.27
2022-10-29T05:12:21.301Z,4.30
2022-10-29T05:14:49.128Z,4.53
2022-10-29T05:17:16.896Z,4.13
2022-10-29T05:19:44.785Z,4.07
2022-10-29T05:22:12.565Z,4.63
2022-10-29T05:24:40.307Z,4.13
2022-10-29T05:27:09.669Z,3.03
2022-10-29T05:29:37.485Z,3.93
2022-10-29T05:32:05.788Z,2.30
2022-10-29T05:34:33.541Z,2.33
2022-10-29T05:37:01.343Z,4.63
2022-10-29T05:39:29.121Z,6.70
2022-10-29T05:41:56.861Z,6.07
2022-10-29T05:44:25.981Z,4.47
2022-10-29T05:46:53.818Z,4.53
2022-10-29T05:49:21.610Z,3.87
2022-10-29T05:51:49.408Z,4.77
2022-10-29T05:54:17.189Z,6.00
2022-10-29T05:56:44.946Z,7.93
2022-10-29T05:59:12.723Z,10.27
2022-10-29T06:01:42.044Z,8.93
2022-10-29T06:04:10.005Z,7.87
2022-10-29T06:06:38.038Z,8.20
2022-10-29T06:09:05.968Z,9.93
2022-10-29T06:11:33.740Z,11.40
2022-10-29T06:14:01.483Z,9.60
2022-10-29T06:16:29.282Z,9.80
2022-10-29T06:18:58.414Z,7.33
2022-10-29T06:21:26.270Z,6.50
2022-10-29T06:23:55.752Z,6.00
2022-10-29T06:26:23.582Z,4.93
2022-10-29T06:28:51.796Z,5.17
2022-10-29T06:31:19.689Z,5.20
2022-10-29T06:33:47.392Z,4.13
2022-10-29T06:36:16.505Z,8.37
2022-10-29T06:38:44.300Z,5.63
2022-10-29T06:41:12.198Z,9.27
2022-10-29T06:43:39.945Z,8.93
2022-10-29T06:46:07.884Z,7.50
2022-10-29T06:48:36.884Z,5.20
2022-10-29T06:51:04.924Z,5.53
2022-10-29T06:53:34.077Z,6.13
2022-10-29T06:56:01.856Z,6.90
2022-10-29T06:58:29.702Z,8.93
2022-10-29T07:03:26.214Z,5.37
2022-10-29T07:05:57.203Z,5.83
2022-10-29T07:08:25.328Z,5.93
2022-10-29T07:10:55.175Z,4.73
2022-10-29T07:13:23.153Z,5.07
2022-10-29T07:15:50.949Z,6.20
2022-10-29T07:18:18.774Z,6.40
2022-10-29T07:20:47.086Z,6.87
2022-10-29T07:23:14.861Z,6.77
2022-10-29T07:25:43.378Z,7.40
2022-10-29T07:28:14.755Z,6.67
2022-10-29T07:30:43.144Z,5.40
2022-10-29T07:33:11.116Z,5.87
2022-10-29T07:35:39.600Z,9.50
2022-10-29T07:38:10.923Z,12.83
2022-10-29T07:40:39.868Z,7.77
2022-10-29T07:43:07.713Z,5.87
2022-10-29T07:45:36.849Z,8.27
2022-10-29T07:48:07.516Z,5.17
2022-10-29T07:50:35.438Z,6.73
2022-10-29T07:53:04.404Z,3.63
2022-10-29T07:55:32.534Z,5.37
2022-10-29T07:58:02.496Z,5.33
2022-10-29T08:00:31.020Z,7.60
2022-10-29T08:03:00.172Z,3.03
2022-10-29T08:05:30.027Z,3.10
2022-10-29T08:07:58.897Z,4.30
2022-10-29T08:10:27.782Z,4.07
2022-10-29T08:12:57.854Z,3.70
2022-10-29T08:15:27.184Z,4.13
2022-10-29T08:17:55.460Z,4.40
2022-10-29T08:20:26.812Z,5.27
2022-10-29T08:22:55.111Z,6.23
2022-10-29T08:25:23.113Z,3.90
2022-10-29T08:28:00.365Z,4.40
2022-10-29T08:30:28.603Z,2.97
2022-10-29T08:32:57.350Z,3.13
2022-10-29T08:35:26.899Z,2.77
2022-10-29T08:37:54.644Z,2.90
2022-10-29T08:40:30.138Z,4.03
2022-10-29T08:43:26.024Z,5.33
2022-10-29T08:45:55.919Z,7.10
2022-10-29T08:48:34.248Z,4.30
2022-10-29T08:51:09.786Z,5.33
2022-10-29T08:53:40.540Z,3.73
2022-10-29T08:56:16.468Z,3.73
2022-10-29T08:58:54.292Z,3.37
2022-10-29T09:01:24.391Z,5.10
2022-10-29T09:03:53.186Z,3.50
2022-10-29T09:06:31.530Z,4.77
2022-10-29T09:09:11.880Z,4.03
2022-10-29T09:12:04.309Z,3.47
2022-10-29T09:14:55.539Z,5.03
2022-10-29T09:17:32.882Z,3.70
2022-10-29T09:20:09.812Z,3.30
2022-10-29T09:22:49.677Z,3.37
2022-10-29T09:25:23.687Z,5.13
2022-10-29T09:28:07.810Z,8.33
2022-10-29T09:30:44.150Z,7.23
2022-10-29T09:33:16.033Z,6.63
2022-10-29T09:35:47.382Z,9.30
2022-10-29T09:38:19.245Z,6.47
2022-10-29T09:40:47.379Z,7.03
2022-10-29T09:43:30.107Z,9.07
2022-10-29T09:46:02.351Z,6.77
2022-10-29T09:48:36.454Z,8.13
2022-10-29T09:51:16.421Z,8.87
2022-10-29T09:53:45.926Z,8.87
2022-10-29T09:56:13.704Z,9.57
2022-10-29T09:58:47.842Z,9.70
2022-10-29T10:01:15.737Z,7.87
2022-10-29T10:03:46.569Z,10.40
2022-10-29T10:06:16.366Z,9.30
2022-10-29T10:09:01.876Z,9.17
2022-10-29T10:11:38.000Z,11.90
2022-10-29T10:14:15.911Z,10.87
2022-10-29T10:16:44.050Z,16.67
2022-10-29T10:19:23.747Z,12.57
2022-10-29T10:21:59.096Z,12.60
2022-10-29T10:24:33.399Z,12.40
2022-10-29T10:27:01.543Z,10.97
2022-10-29T10:29:29.655Z,12.37
2022-10-29T10:32:17.079Z,12.07
2022-10-29T10:34:44.919Z,11.20
2022-10-29T10:37:19.373Z,11.80
2022-10-29T10:39:52.685Z,12.27
2022-10-29T10:42:25.616Z,10.43
2022-10-29T10:44:58.808Z,9.93
2022-10-29T10:47:30.697Z,9.30
2022-10-29T10:50:11.853Z,8.20
2022-10-29T10:52:40.085Z,6.83
2022-10-29T10:55:22.823Z,8.27
2022-10-29T10:57:59.390Z,5.50
2022-10-29T11:00:30.791Z,8.10
2022-10-29T11:03:04.976Z,7.97
2022-10-29T11:05:36.455Z,5.17
2022-10-29T11:08:11.667Z,8.07
2022-10-29T11:10:45.812Z,7.47
2022-10-29T11:13:16.951Z,7.80
2022-10-29T11:15:51.682Z,7.20
2022-10-29T11:18:25.395Z,9.73
2022-10-29T11:21:05.866Z,10.67
2022-10-29T11:23:44.468Z,8.67
2022-10-29T11:26:18.904Z,9.40
2022-10-29T11:28:54.127Z,7.03
2022-10-29T11:31:28.650Z,6.93
2022-10-29T11:34:04.174Z,7.30
2022-10-29T11:36:39.003Z,7.90
2022-10-29T11:39:12.239Z,6.10
2022-10-29T11:41:47.633Z,6.07
2022-10-29T11:44:20.766Z,6.10
2022-10-29T11:47:02.593Z,6.47
2022-10-29T11:49:47.620Z,6.47
2022-10-29T11:52:34.776Z,6.87
2022-10-29T11:55:20.483Z,5.37
2022-10-29T11:57:56.680Z,5.43
2022-10-29T12:00:25.841Z,7.03
2022-10-29T12:03:32.085Z,8.10
2022-10-29T12:06:10.468Z,7.10
2022-10-29T12:08:57.132Z,6.17
2022-10-29T12:11:32.597Z,5.37
2022-10-29T12:14:12.804Z,5.50
2022-10-29T12:16:50.409Z,7.10
2022-10-29T12:19:38.519Z,7.37
2022-10-29T12:22:18.623Z,6.03
2022-10-29T12:25:07.781Z,6.37
2022-10-29T12:27:45.699Z,5.70
2022-10-29T12:30:18.190Z,9.17
2022-10-29T12:32:56.209Z,8.30
2022-10-29T12:35:30.239Z,9.07
2022-10-29T12:38:13.643Z,7.70
2022-10-29T12:40:44.823Z,8.60
2022-10-29T12:43:19.355Z,7.20
2022-10-29T12:48:54.515Z,7.73
2022-10-29T12:51:29.914Z,5.40
2022-10-29T12:54:16.450Z,7.20
2022-10-29T12:56:47.796Z,5.33
2022-10-29T12:59:34.041Z,6.43
2022-10-29T13:02:27.729Z,5.37
2022-10-29T13:05:37.126Z,5.93
2022-10-29T13:08:44.517Z,7.40
2022-10-29T13:11:24.146Z,9.73
2022-10-29T13:13:58.176Z,7.07
2022-10-29T13:16:31.332Z,8.30
2022-10-29T13:19:15.202Z,5.17
2022-10-29T13:21:59.862Z,4.33
2022-10-29T13:24:28.668Z,7.40
2022-10-29T13:27:05.896Z,9.13
2022-10-29T13:29:51.153Z,5.80
2022-10-29T13:32:33.030Z,6.43
2022-10-29T13:35:03.877Z,7.00
2022-10-29T13:37:53.800Z,6.80
2022-10-29T13:40:41.589Z,6.07
2022-10-29T13:43:18.044Z,4.47
2022-10-29T13:45:51.217Z,7.00
2022-10-29T13:48:26.289Z,7.60
2022-10-29T13:50:58.638Z,5.90
2022-10-29T13:53:36.461Z,6.23
2022-10-29T13:56:08.135Z,5.20
2022-10-29T13:58:38.535Z,5.37
2022-10-29T14:01:12.179Z,5.80
2022-10-29T14:03:50.849Z,7.00
2022-10-29T14:06:26.084Z,5.60
2022-10-29T14:09:01.267Z,4.23
2022-10-29T14:11:31.894Z,4.10
2022-10-29T14:14:02.321Z,4.43
2022-10-29T14:16:32.634Z,5.33
2022-10-29T14:19:14.654Z,5.70
2022-10-29T14:21:43.833Z,6.00
2022-10-29T14:24:15.943Z,5.10
2022-10-29T14:26:45.587Z,4.47
2022-10-29T14:29:21.279Z,4.27
2022-10-29T14:32:05.228Z,4.10
2022-10-29T14:34:33.202Z,3.77
2022-10-29T14:37:05.777Z,4.87
2022-10-29T14:39:48.503Z,4.70
2022-10-29T14:42:31.420Z,5.43
2022-10-29T14:45:02.727Z,4.20
2022-10-29T14:47:33.591Z,3.20
2022-10-29T14:50:05.004Z,4.03
2022-10-29T14:52:38.633Z,2.73
2022-10-29T14:55:10.014Z,2.80
2022-10-29T14:57:44.496Z,2.63
2022-10-29T15:00:24.226Z,3.83
2022-10-29T15:02:53.509Z,5.60
2022-10-29T15:05:26.103Z,3.83
2022-10-29T15:08:07.076Z,4.23
2022-10-29T15:10:46.243Z,4.40
2022-10-29T15:13:30.406Z,4.00
2022-10-29T15:16:02.093Z,4.03
2022-10-29T15:18:31.610Z,4.17
2022-10-29T15:20:59.793Z,4.57
2022-10-29T15:23:34.045Z,3.63
2022-10-29T15:26:04.225Z,4.80
2022-10-29T15:28:40.917Z,3.90
2022-10-29T15:31:21.971Z,3.23
2022-10-29T15:33:52.606Z,3.60
2022-10-29T15:36:20.815Z,3.40
2022-10-29T15:39:21.044Z,4.00
2022-10-29T15:41:51.547Z,4.13
2022-10-29T15:44:39.337Z,3.50
2022-10-29T15:47:28.624Z,3.10
2022-10-29T15:49:56.686Z,5.63
2022-10-29T15:52:31.074Z,6.17
2022-10-29T15:55:00.819Z,5.40
2022-10-29T15:57:31.463Z,6.57
2022-10-29T16:00:05.248Z,4.77
2022-10-29T16:02:33.154Z,3.87
2022-10-29T16:05:01.160Z,4.37
2022-10-29T16:07:29.031Z,3.20
2022-10-29T16:09:58.984Z,3.30
2022-10-29T16:12:27.053Z,3.23
2022-10-29T16:14:56.230Z,3.90
2022-10-29T16:17:23.960Z,5.37
2022-10-29T16:19:51.915Z,6.63
2022-10-29T16:22:27.768Z,7.40
2022-10-29T16:24:56.134Z,6.93
2022-10-29T16:27:23.949Z,8.20
2022-10-29T16:29:51.924Z,5.27
2022-10-29T16:32:23.869Z,6.73
2022-10-29T16:34:52.276Z,4.97
2022-10-29T16:37:21.492Z,4.47
2022-10-29T16:39:49.320Z,3.67
2022-10-29T16:42:30.939Z,5.73
2022-10-29T16:44:58.827Z,6.63
2022-10-29T16:47:28.221Z,4.83
2022-10-29T16:49:56.139Z,6.77
2022-10-29T16:52:26.350Z,7.47
2022-10-29T16:54:56.921Z,6.30
2022-10-29T16:57:25.076Z,7.03
2022-10-29T16:59:52.873Z,6.10
2022-10-29T17:02:20.649Z,6.07
2022-10-29T17:04:49.886Z,6.23
2022-10-29T17:07:18.287Z,4.90
2022-10-29T17:09:46.120Z,5.30
2022-10-29T17:12:13.980Z,5.37
2022-10-29T17:14:41.846Z,6.33
2022-10-29T17:17:09.571Z,4.27
2022-10-29T17:19:37.525Z,5.53
2022-10-29T17:22:10.492Z,4.90
2022-10-29T17:24:38.378Z,3.70
2022-10-29T17:27:06.191Z,6.17
2022-10-29T17:29:36.444Z,7.10
2022-10-29T17:32:05.818Z,9.00
2022-10-29T17:34:35.103Z,9.57
2022-10-29T17:37:04.300Z,9.87
2022-10-29T17:39:33.449Z,9.00
2022-10-29T17:42:01.300Z,8.80
2022-10-29T17:44:29.100Z,7.73
2022-10-29T17:46:56.854Z,7.37
2022-10-29T17:49:25.818Z,5.93
2022-10-29T17:51:53.815Z,5.60
2022-10-29T17:54:22.151Z,11.00
2022-10-29T17:56:52.225Z,12.33
2022-10-29T17:59:20.026Z,11.07
2022-10-29T18:01:48.159Z,12.10
2022-10-29T18:04:16.491Z,10.63
2022-10-29T18:06:44.345Z,8.87
2022-10-29T18:09:13.746Z,7.47
2022-10-29T18:11:43.646Z,6.67
2022-10-29T18:14:12.740Z,5.80
2022-10-29T18:16:40.461Z,5.77
2022-10-29T18:19:08.284Z,7.20
2022-10-29T18:21:36.009Z,7.23
2022-10-29T18:24:03.799Z,4.87
2022-10-29T18:26:33.120Z,5.03
2022-10-29T18:29:02.373Z,5.27
2022-10-29T18:31:33.043Z,4.33
2022-10-29T18:34:04.782Z,4.83
2022-10-29T18:36:33.248Z,4.63
2022-10-29T18:39:01.233Z,3.60
2022-10-29T18:41:29.033Z,4.00
2022-10-29T18:43:56.949Z,3.10
2022-10-29T18:46:24.779Z,3.13
2022-10-29T18:48:53.935Z,3.80
2022-10-29T18:51:24.709Z,4.30
2022-10-29T18:53:53.384Z,4.00
2022-10-29T18:56:22.770Z,3.40
2022-10-29T18:58:50.824Z,4.17
2022-10-29T19:01:20.609Z,3.10
2022-10-29T19:03:50.630Z,2.90
2022-10-29T19:06:20.876Z,3.37
2022-10-29T19:08:48.796Z,5.27
2022-10-29T19:11:18.604Z,5.33
2022-10-29T19:13:51.284Z,5.77
2022-10-29T19:16:19.893Z,6.87
2022-10-29T19:18:47.925Z,8.27
2022-10-29T19:21:17.741Z,8.80
2022-10-29T19:23:47.368Z,8.80
2022-10-29T19:26:17.588Z,6.93
2022-10-29T19:28:47.015Z,8.67
2022-10-29T19:31:16.876Z,6.30
2022-10-29T19:33:48.344Z,7.70
2022-10-29T19:36:16.241Z,8.70
2022-10-29T19:38:44.350Z,9.03
2022-10-29T19:41:14.198Z,10.60
2022-10-29T19:43:42.747Z,7.50
2022-10-29T19:46:13.103Z,12.03
2022-10-29T19:48:41.371Z,7.33
2022-10-29T19:51:10.218Z,7.53
2022-10-29T19:53:39.568Z,6.70
2022-10-29T19:56:08.394Z,7.27
2022-10-29T19:58:37.526Z,7.23
2022-10-29T20:01:07.211Z,6.17
2022-10-29T20:03:35.043Z,8.63
2022-10-29T20:06:02.915Z,9.00
2022-10-29T20:08:31.055Z,10.47
2022-10-29T20:10:59.647Z,8.23
2022-10-29T20:13:28.267Z,9.47
2022-10-29T20:15:57.469Z,10.30
2022-10-29T20:18:25.877Z,7.90
2022-10-29T20:20:57.905Z,6.17
2022-10-29T20:23:26.429Z,6.70
2022-10-29T20:25:54.188Z,6.70
2022-10-29T20:28:22.491Z,5.73
2022-10-29T20:30:50.250Z,7.87
2022-10-29T20:33:19.514Z,6.30
2022-10-29T20:35:47.302Z,6.07
2022-10-29T20:38:15.114Z,6.63
2022-10-29T20:40:42.876Z,7.07
2022-10-29T20:43:10.693Z,6.63
2022-10-29T20:45:38.534Z,7.57
2022-10-29T20:48:07.322Z,6.23
2022-10-29T20:50:36.472Z,7.53
2022-10-29T20:53:04.430Z,6.73
2022-10-29T20:55:32.256Z,10.90
2022-10-29T20:58:00.494Z,7.77
2022-10-29T21:00:28.501Z,9.73
2022-10-29T21:02:56.256Z,6.27
2022-10-29T21:05:24.052Z,6.80
2022-10-29T21:07:53.203Z,7.07
2022-10-29T21:10:21.071Z,7.10
2022-10-29T21:12:48.857Z,7.47
2022-10-29T21:15:16.976Z,5.23
2022-10-29T21:17:44.878Z,5.40
2022-10-29T21:20:12.782Z,7.33
2022-10-29T21:22:40.994Z,4.90
2022-10-29T21:25:11.295Z,6.83
2022-10-29T21:27:39.580Z,5.57
2022-10-29T21:30:09.050Z,4.10
2022-10-29T21:32:36.977Z,4.47
2022-10-29T21:35:04.918Z,4.73
2022-10-29T21:37:32.717Z,6.13
2022-10-29T21:40:03.433Z,4.77
2022-10-29T21:42:35.450Z,5.07
2022-10-29T21:45:03.611Z,5.60
2022-10-29T21:47:31.387Z,7.70
2022-10-29T21:49:59.191Z,5.83
2022-10-29T21:52:27.029Z,6.97
2022-10-29T21:54:54.813Z,5.67
2022-10-29T21:57:22.595Z,5.40
2022-10-29T21:59:51.744Z,6.03
2022-10-29T22:02:19.568Z,5.10
2022-10-29T22:04:47.369Z,4.90
2022-10-29T22:07:15.412Z,4.20
2022-10-29T22:09:43.169Z,4.57
2022-10-29T22:12:10.983Z,4.57
2022-10-29T22:14:38.764Z,6.80
2022-10-29T22:17:07.966Z,3.77
2022-10-29T22:19:35.748Z,5.07
2022-10-29T22:22:03.633Z,4.67
2022-10-29T22:24:31.442Z,6.20
2022-10-29T22:26:59.241Z,4.03
2022-10-29T22:29:27.061Z,3.80
2022-10-29T22:31:54.950Z,4.57
2022-10-29T22:34:24.292Z,4.73
2022-10-29T22:36:52.430Z,10.37
2022-10-29T22:39:20.231Z,8.07
2022-10-29T22:41:47.992Z,6.87
2022-10-29T22:44:15.731Z,6.57
2022-10-29T22:46:43.557Z,4.73
2022-10-29T22:49:12.176Z,5.10
2022-10-29T22:51:41.671Z,4.90
2022-10-29T22:54:09.484Z,4.17
2022-10-29T22:56:39.129Z,3.87
2022-10-29T22:59:07.400Z,4.13
2022-10-29T23:01:40.320Z,3.13
2022-10-29T23:04:12.106Z,6.33
2022-10-29T23:06:41.283Z,4.60
2022-10-29T23:09:09.090Z,4.33
2022-10-29T23:11:39.249Z,4.20
2022-10-29T23:14:07.325Z,3.77
2022-10-29T23:16:37.431Z,3.60
2022-10-29T23:19:06.963Z,3.53
2022-10-29T23:21:34.803Z,3.47
2022-10-29T23:24:04.261Z,3.73
2022-10-29T23:26:32.103Z,4.63
2022-10-29T23:29:00.141Z,4.47
2022-10-29T23:31:29.469Z,4.10
2022-10-29T23:33:58.344Z,4.40
2022-10-29T23:36:28.068Z,5.00
2022-10-29T23:38:56.848Z,3.07
2022-10-29T23:41:26.123Z,3.10
2022-10-29T23:43:54.005Z,5.23
2022-10-29T23:46:22.397Z,3.97
2022-10-29T23:48:50.838Z,4.40
2022-10-29T23:51:19.105Z,5.17
2022-10-29T23:53:49.168Z,6.60
2022-10-29T23:56:19.476Z,6.87
2022-10-29T23:58:48.603Z,6.03
